Dearborn, Michigan
Current Conditions -  °F | °C
As of 2:53 AM on Thursday 27 Nov 2014 (Local Time) from KDTW Reporting Station
Overcast Overcast  
Wind Chill: 22°   Ceiling: 4000
Heat Index: 30°   Visibility: 10mi
Dew Point: 23°   Wind: 9mph
Humidity: 75%   Direction: 320°NW
Pressure: 30.09"   Gusts: NA
Location:  42.32°N, 83.18°W
Report Text: KDTW 270753Z 32008KT 10SM FEW020 BKN040 OVC055 M01/M05 A3009 RMK AO2 SNE41 SLP196 P0000 T10111050
Loading
Personal Weather Stations






























Interactive Weather Map New forecast layout! Learn more

10-Day Weather Forecast

Advertisements
Track Severe Weather on mobile